sensor_id;sensor_type;location;lat;lon;timestamp;pressure;altitude;pressure_sealevel;temperature;humidity
72548;BME280;60570;50.848;6.776;2023-03-01T00:00:30;101817.59;;;5.37;53.20
72548;BME280;60570;50.848;6.776;2023-03-01T00:01:31;101824.50;;;5.40;53.42
72548;BME280;60570;50.848;6.776;2023-03-01T00:02:32;101819.00;;;5.40;53.61
72548;BME280;60570;50.848;6.776;2023-03-01T00:03:33;101824.19;;;5.36;53.63
72548;BME280;60570;50.848;6.776;2023-03-01T00:04:33;101823.38;;;5.36;53.69
72548;BME280;60570;50.848;6.776;2023-03-01T00:05:35;101828.06;;;5.35;53.67
72548;BME280;60570;50.848;6.776;2023-03-01T00:06:36;101819.22;;;5.33;53.88
72548;BME280;60570;50.848;6.776;2023-03-01T00:07:37;101824.19;;;5.36;53.43
72548;BME280;60570;50.848;6.776;2023-03-01T00:08:38;101821.44;;;5.36;53.32
72548;BME280;60570;50.848;6.776;2023-03-01T00:09:38;101825.31;;;5.35;53.47
72548;BME280;60570;50.848;6.776;2023-03-01T00:10:40;101820.59;;;5.31;53.97
72548;BME280;60570;50.848;6.776;2023-03-01T00:11:40;101817.03;;;5.35;53.45
72548;BME280;60570;50.848;6.776;2023-03-01T00:12:41;101825.03;;;5.37;53.41
72548;BME280;60570;50.848;6.776;2023-03-01T00:13:42;101825.25;;;5.30;53.97
72548;BME280;60570;50.848;6.776;2023-03-01T00:14:43;101825.31;;;5.35;53.38
72548;BME280;60570;50.848;6.776;2023-03-01T00:15:43;101823.38;;;5.36;53.75
72548;BME280;60570;50.848;6.776;2023-03-01T00:16:45;101827.22;;;5.35;53.42
72548;BME280;60570;50.848;6.776;2023-03-01T00:17:46;101823.91;;;5.33;53.52
72548;BME280;60570;50.848;6.776;2023-03-01T00:18:46;101827.78;;;5.37;53.55
72548;BME280;60570;50.848;6.776;2023-03-01T00:19:47;101827.47;;;5.28;53.49
72548;BME280;60570;50.848;6.776;2023-03-01T00:20:51;101835.75;;;5.33;53.54
72548;BME280;60570;50.848;6.776;2023-03-01T00:21:52;101842.34;;;5.32;53.55
72548;BME280;60570;50.848;6.776;2023-03-01T00:22:53;101834.09;;;5.32;53.46
72548;BME280;60570;50.848;6.776;2023-03-01T00:23:54;101837.97;;;5.36;53.70
72548;BME280;60570;50.848;6.776;2023-03-01T00:24:54;101834.41;;;5.36;53.32
72548;BME280;60570;50.848;6.776;2023-03-01T00:25:55;101830.78;;;5.30;53.75
72548;BME280;60570;50.848;6.776;2023-03-01T00:26:55;101834.66;;;5.34;53.38
72548;BME280;60570;50.848;6.776;2023-03-01T00:27:56;101828.06;;;5.35;53.67
72548;BME280;60570;50.848;6.776;2023-03-01T00:28:58;101831.34;;;5.32;53.82
72548;BME280;60570;50.848;6.776;2023-03-01T00:29:58;101831.66;;;5.36;53.12
72548;BME280;60570;50.848;6.776;2023-03-01T00:32:05;101832.16;;;5.33;53.58
72548;BME280;60570;50.848;6.776;2023-03-01T00:33:05;101829.47;;;5.38;53.42
72548;BME280;60570;50.848;6.776;2023-03-01T00:34:06;101838.50;;;5.33;53.27
72548;BME280;60570;50.848;6.776;2023-03-01T00:35:07;101833.56;;;5.35;53.28
72548;BME280;60570;50.848;6.776;2023-03-01T00:36:09;101829.69;;;5.36;53.11
72548;BME280;60570;50.848;6.776;2023-03-01T00:37:10;101832.16;;;5.33;53.69
72548;BME280;60570;50.848;6.776;2023-03-01T00:38:11;101834.63;;;5.29;53.89
72548;BME280;60570;50.848;6.776;2023-03-01T00:39:13;101837.41;;;5.34;53.55
72548;BME280;60570;50.848;6.776;2023-03-01T00:40:14;101829.13;;;5.29;53.56
72548;BME280;60570;50.848;6.776;2023-03-01T00:41:17;101823.34;;;5.26;53.71
72548;BME280;60570;50.848;6.776;2023-03-01T00:42:18;101823.59;;;5.24;53.73
72548;BME280;60570;50.848;6.776;2023-03-01T00:43:18;101831.88;;;5.29;53.26
72548;BME280;60570;50.848;6.776;2023-03-01T00:44:19;101828.56;;;5.27;53.30
72548;BME280;60570;50.848;6.776;2023-03-01T00:45:19;101826.66;;;5.33;53.25
72548;BME280;60570;50.848;6.776;2023-03-01T00:46:23;101828.06;;;5.35;53.22
72548;BME280;60570;50.848;6.776;2023-03-01T00:47:24;101833.53;;;5.30;53.37
72548;BME280;60570;50.848;6.776;2023-03-01T00:48:24;101822.25;;;5.32;53.60
72548;BME280;60570;50.848;6.776;2023-03-01T00:49:25;101815.91;;;5.31;53.30
72548;BME280;60570;50.848;6.776;2023-03-01T00:50:28;101821.13;;;5.28;53.58
72548;BME280;60570;50.848;6.776;2023-03-01T00:51:29;101813.97;;;5.27;53.65
72548;BME280;60570;50.848;6.776;2023-03-01T00:52:29;101821.41;;;5.26;53.62
72548;BME280;60570;50.848;6.776;2023-03-01T00:53:29;101825.81;;;5.27;53.48
72548;BME280;60570;50.848;6.776;2023-03-01T00:54:30;101822.50;;;5.25;53.72
72548;BME280;60570;50.848;6.776;2023-03-01T00:55:30;101823.34;;;5.26;53.85
72548;BME280;60570;50.848;6.776;2023-03-01T00:56:31;101818.66;;;5.26;53.48
72548;BME280;60570;50.848;6.776;2023-03-01T00:57:31;101816.69;;;5.22;53.69
72548;BME280;60570;50.848;6.776;2023-03-01T00:58:33;101817.53;;;5.22;53.62
72548;BME280;60570;50.848;6.776;2023-03-01T00:59:33;101818.63;;;5.21;53.62
72548;BME280;60570;50.848;6.776;2023-03-01T01:00:35;101818.34;;;5.23;53.71
72548;BME280;60570;50.848;6.776;2023-03-01T01:01:36;101818.06;;;5.19;53.77
72548;BME280;60570;50.848;6.776;2023-03-01T01:02:36;101819.41;;;5.17;53.82
72548;BME280;60570;50.848;6.776;2023-03-01T01:03:37;101819.16;;;5.18;53.71
72548;BME280;60570;50.848;6.776;2023-03-01T01:04:37;101822.16;;;5.17;53.93
72548;BME280;60570;50.848;6.776;2023-03-01T01:05:38;101812.81;;;5.18;53.89
72548;BME280;60570;50.848;6.776;2023-03-01T01:06:42;101804.56;;;5.23;53.45
72548;BME280;60570;50.848;6.776;2023-03-01T01:07:43;101816.97;;;5.20;53.50
72548;BME280;60570;50.848;6.776;2023-03-01T01:08:44;101810.91;;;5.18;53.76
72548;BME280;60570;50.848;6.776;2023-03-01T01:09:44;101816.69;;;5.22;53.65
72548;BME280;60570;50.848;6.776;2023-03-01T01:10:45;101814.75;;;5.17;53.94
72548;BME280;60570;50.848;6.776;2023-03-01T01:11:48;101811.69;;;5.14;53.70
72548;BME280;60570;50.848;6.776;2023-03-01T01:12:49;101811.16;;;5.17;53.64
72548;BME280;60570;50.848;6.776;2023-03-01T01:13:50;101814.75;;;5.17;53.61
72548;BME280;60570;50.848;6.776;2023-03-01T01:14:50;101800.69;;;5.19;53.32
72548;BME280;60570;50.848;6.776;2023-03-01T01:15:51;101804.56;;;5.18;53.60
72548;BME280;60570;50.848;6.776;2023-03-01T01:16:52;101805.91;;;5.15;53.75
72548;BME280;60570;50.848;6.776;2023-03-01T01:17:52;101796.53;;;5.11;53.56
72548;BME280;60570;50.848;6.776;2023-03-01T01:18:53;101805.63;;;5.12;53.81
72548;BME280;60570;50.848;6.776;2023-03-01T01:19:53;101795.47;;;5.17;53.17
72548;BME280;60570;50.848;6.776;2023-03-01T01:20:54;101797.66;;;5.15;53.40
72548;BME280;60570;50.848;6.776;2023-03-01T01:21:54;101802.59;;;5.13;53.74
72548;BME280;60570;50.848;6.776;2023-03-01T01:22:55;101802.06;;;5.16;53.28
72548;BME280;60570;50.848;6.776;2023-03-01T01:23:56;101798.75;;;5.14;53.22
72548;BME280;60570;50.848;6.776;2023-03-01T01:24:56;101797.41;;;5.22;53.15
72548;BME280;60570;50.848;6.776;2023-03-01T01:25:57;101796.28;;;5.18;53.34
72548;BME280;60570;50.848;6.776;2023-03-01T01:26:57;101797.94;;;5.19;53.12
72548;BME280;60570;50.848;6.776;2023-03-01T01:27:58;101790.22;;;5.11;53.54
72548;BME280;60570;50.848;6.776;2023-03-01T01:28:59;101794.59;;;5.12;53.56
72548;BME280;60570;50.848;6.776;2023-03-01T01:30:00;101791.03;;;5.11;53.64
72548;BME280;60570;50.848;6.776;2023-03-01T01:31:00;101797.09;;;5.13;53.79
72548;BME280;60570;50.848;6.776;2023-03-01T01:32:01;101784.38;;;5.07;53.83
72548;BME280;60570;50.848;6.776;2023-03-01T01:33:01;101784.09;;;5.04;53.86
72548;BME280;60570;50.848;6.776;2023-03-01T01:34:04;101778.06;;;5.07;53.50
72548;BME280;60570;50.848;6.776;2023-03-01T01:35:05;101781.69;;;5.12;53.78
72548;BME280;60570;50.848;6.776;2023-03-01T01:36:06;101776.44;;;5.11;53.76
72548;BME280;60570;50.848;6.776;2023-03-01T01:37:07;101773.13;;;5.09;53.54
72548;BME280;60570;50.848;6.776;2023-03-01T01:38:08;101774.78;;;5.10;53.44
72548;BME280;60570;50.848;6.776;2023-03-01T01:39:08;101774.47;;;5.06;53.53
72548;BME280;60570;50.848;6.776;2023-03-01T01:40:13;101775.56;;;5.05;53.70
72548;BME280;60570;50.848;6.776;2023-03-01T01:41:14;101776.13;;;5.07;53.76
72548;BME280;60570;50.848;6.776;2023-03-01T01:42:16;101774.75;;;5.05;53.75
72548;BME280;60570;50.848;6.776;2023-03-01T01:43:29;101770.88;;;5.01;54.00
72548;BME280;60570;50.848;6.776;2023-03-01T01:44:30;101769.50;;;5.03;53.86
72548;BME280;60570;50.848;6.776;2023-03-01T01:45:35;101767.28;;;5.00;53.92
72548;BME280;60570;50.848;6.776;2023-03-01T01:46:37;101768.69;;;5.03;53.83
72548;BME280;60570;50.848;6.776;2023-03-01T01:47:39;101772.78;;;5.00;53.79
72548;BME280;60570;50.848;6.776;2023-03-01T01:48:43;101768.69;;;5.03;54.00
72548;BME280;60570;50.848;6.776;2023-03-01T01:49:47;101763.47;;;5.06;53.82
72548;BME280;60570;50.848;6.776;2023-03-01T01:50:55;101764.81;;;5.04;53.58
72548;BME280;60570;50.848;6.776;2023-03-01T01:52:02;101762.06;;;5.04;53.57
72548;BME280;60570;50.848;6.776;2023-03-01T01:53:09;101760.44;;;5.03;53.59
72548;BME280;60570;50.848;6.776;2023-03-01T01:54:21;101758.25;;;5.05;53.87
72548;BME280;60570;50.848;6.776;2023-03-01T01:55:26;101751.91;;;5.04;53.69
72548;BME280;60570;50.848;6.776;2023-03-01T01:56:28;101755.72;;;4.98;53.82
72548;BME280;60570;50.848;6.776;2023-03-01T01:57:39;101754.88;;;4.98;53.93
72548;BME280;60570;50.848;6.776;2023-03-01T01:58:40;101752.72;;;5.05;53.61
72548;BME280;60570;50.848;6.776;2023-03-01T01:59:44;101752.41;;;5.01;53.57
72548;BME280;60570;50.848;6.776;2023-03-01T02:00:46;101754.09;;;5.02;53.70
72548;BME280;60570;50.848;6.776;2023-03-01T02:01:47;101749.69;;;5.06;53.34
72548;BME280;60570;50.848;6.776;2023-03-01T02:02:51;101752.72;;;5.05;53.76
72548;BME280;60570;50.848;6.776;2023-03-01T02:03:55;101751.91;;;5.04;53.62
72548;BME280;60570;50.848;6.776;2023-03-01T02:06:26;101757.13;;;5.01;53.49
72548;BME280;60570;50.848;6.776;2023-03-01T02:07:30;101761.22;;;4.98;53.86
72548;BME280;60570;50.848;6.776;2023-03-01T02:08:31;101756.81;;;4.97;53.43
72548;BME280;60570;50.848;6.776;2023-03-01T02:09:33;101753.25;;;5.02;53.70
72548;BME280;60570;50.848;6.776;2023-03-01T02:10:35;101748.25;;;4.94;53.66
72548;BME280;60570;50.848;6.776;2023-03-01T02:11:36;101746.63;;;4.98;53.74
72548;BME280;60570;50.848;6.776;2023-03-01T02:12:38;101746.03;;;4.91;54.21
72548;BME280;60570;50.848;6.776;2023-03-01T02:13:38;101748.84;;;5.01;53.61
72548;BME280;60570;50.848;6.776;2023-03-01T02:14:39;101744.13;;;4.96;53.70
72548;BME280;60570;50.848;6.776;2023-03-01T02:15:40;101748.81;;;4.96;53.81
72548;BME280;60570;50.848;6.776;2023-03-01T02:16:41;101752.13;;;4.93;53.73
72548;BME280;60570;50.848;6.776;2023-03-01T02:17:42;101744.13;;;4.91;54.22
72548;BME280;60570;50.848;6.776;2023-03-01T02:18:44;101735.59;;;4.93;53.66
72548;BME280;60570;50.848;6.776;2023-03-01T02:22:30;101738.34;;;4.93;54.07
72548;BME280;60570;50.848;6.776;2023-03-01T02:23:32;101740.31;;;4.97;53.60
72548;BME280;60570;50.848;6.776;2023-03-01T02:27:34;101737.78;;;4.86;54.13
72548;BME280;60570;50.848;6.776;2023-03-01T02:28:38;101735.03;;;4.86;54.30
72548;BME280;60570;50.848;6.776;2023-03-01T02:29:40;101732.81;;;4.88;54.23
72548;BME280;60570;50.848;6.776;2023-03-01T02:30:48;101733.63;;;4.83;54.07
72548;BME280;60570;50.848;6.776;2023-03-01T02:32:08;101730.59;;;4.85;54.28
72548;BME280;60570;50.848;6.776;2023-03-01T02:33:08;101730.03;;;4.88;54.25
72548;BME280;60570;50.848;6.776;2023-03-01T02:34:13;101730.31;;;4.86;54.09
72548;BME280;60570;50.848;6.776;2023-03-01T02:35:15;101729.53;;;4.91;54.02
72548;BME280;60570;50.848;6.776;2023-03-01T02:36:20;101733.63;;;4.88;54.09
72548;BME280;60570;50.848;6.776;2023-03-01T02:37:22;101737.50;;;4.87;53.96
72548;BME280;60570;50.848;6.776;2023-03-01T02:38:25;101734.47;;;4.89;53.67
72548;BME280;60570;50.848;6.776;2023-03-01T02:39:30;101733.91;;;4.87;54.14
72548;BME280;60570;50.848;6.776;2023-03-01T02:40:33;101732.00;;;4.87;53.98
72548;BME280;60570;50.848;6.776;2023-03-01T02:41:36;101736.66;;;4.87;53.67
72548;BME280;60570;50.848;6.776;2023-03-01T02:42:48;101731.44;;;4.85;53.65
72548;BME280;60570;50.848;6.776;2023-03-01T02:43:49;101724.00;;;4.86;53.88
72548;BME280;60570;50.848;6.776;2023-03-01T02:44:50;101728.13;;;4.88;53.92
72548;BME280;60570;50.848;6.776;2023-03-01T02:45:51;101727.63;;;4.91;53.56
72548;BME280;60570;50.848;6.776;2023-03-01T02:46:55;101725.41;;;4.93;53.95
72548;BME280;60570;50.848;6.776;2023-03-01T02:47:56;101727.63;;;4.91;54.09
72548;BME280;60570;50.848;6.776;2023-03-01T02:48:58;101729.53;;;4.86;54.04
72548;BME280;60570;50.848;6.776;2023-03-01T02:49:59;101734.19;;;4.90;53.75
72548;BME280;60570;50.848;6.776;2023-03-01T02:51:06;101734.19;;;4.90;53.83
72548;BME280;60570;50.848;6.776;2023-03-01T02:52:36;101738.34;;;4.93;53.66
72548;BME280;60570;50.848;6.776;2023-03-01T02:56:06;101732.50;;;4.79;54.03
72548;BME280;60570;50.848;6.776;2023-03-01T02:57:13;101729.69;;;4.74;54.44
72548;BME280;60570;50.848;6.776;2023-03-01T02:58:14;101735.19;;;4.74;54.11
72548;BME280;60570;50.848;6.776;2023-03-01T02:59:16;101731.09;;;4.77;53.93
72548;BME280;60570;50.848;6.776;2023-03-01T03:00:21;101736.91;;;4.80;53.90
72548;BME280;60570;50.848;6.776;2023-03-01T03:01:23;101735.25;;;4.84;54.12
72548;BME280;60570;50.848;6.776;2023-03-01T03:02:36;101734.19;;;4.85;53.85
72548;BME280;60570;50.848;6.776;2023-03-01T03:03:37;101736.09;;;4.85;53.60
72548;BME280;60570;50.848;6.776;2023-03-01T03:04:37;101729.19;;;4.82;53.83
72548;BME280;60570;50.848;6.776;2023-03-01T03:05:37;101727.56;;;4.81;54.26
72548;BME280;60570;50.848;6.776;2023-03-01T03:06:38;101726.72;;;4.76;54.25
72548;BME280;60570;50.848;6.776;2023-03-01T03:07:40;101724.47;;;4.73;54.45
72548;BME280;60570;50.848;6.776;2023-03-01T03:08:41;101715.13;;;4.74;54.19
72548;BME280;60570;50.848;6.776;2023-03-01T03:09:41;101725.03;;;4.75;54.17
72548;BME280;60570;50.848;6.776;2023-03-01T03:10:42;101724.47;;;4.68;54.30
72548;BME280;60570;50.848;6.776;2023-03-01T03:11:45;101722.28;;;4.75;54.03
72548;BME280;60570;50.848;6.776;2023-03-01T03:12:57;101717.59;;;4.70;53.96
72548;BME280;60570;50.848;6.776;2023-03-01T03:13:58;101721.44;;;4.69;54.28
72548;BME280;60570;50.848;6.776;2023-03-01T03:14:58;101721.44;;;4.74;54.01
72548;BME280;60570;50.848;6.776;2023-03-01T03:15:59;101715.69;;;4.76;54.15
72548;BME280;60570;50.848;6.776;2023-03-01T03:16:59;101716.50;;;4.76;53.93
72548;BME280;60570;50.848;6.776;2023-03-01T03:18:00;101714.88;;;4.75;53.91
72548;BME280;60570;50.848;6.776;2023-03-01T03:19:00;101716.22;;;4.73;53.84
72548;BME280;60570;50.848;6.776;2023-03-01T03:20:06;101715.94;;;4.69;54.17
72548;BME280;60570;50.848;6.776;2023-03-01T03:21:12;101712.09;;;4.75;53.95
72548;BME280;60570;50.848;6.776;2023-03-01T03:22:13;101709.63;;;4.74;54.08
72548;BME280;60570;50.848;6.776;2023-03-01T03:23:13;101712.63;;;4.72;54.04
72548;BME280;60570;50.848;6.776;2023-03-01T03:24:14;101717.06;;;4.78;54.12
72548;BME280;60570;50.848;6.776;2023-03-01T03:25:16;101709.88;;;4.72;53.82
72548;BME280;60570;50.848;6.776;2023-03-01T03:26:16;101711.25;;;4.70;54.20
72548;BME280;60570;50.848;6.776;2023-03-01T03:27:17;101708.78;;;4.68;53.95
72548;BME280;60570;50.848;6.776;2023-03-01T03:28:18;101711.22;;;4.65;54.29
72548;BME280;60570;50.848;6.776;2023-03-01T03:29:18;101704.66;;;4.71;54.12
72548;BME280;60570;50.848;6.776;2023-03-01T03:30:19;101703.00;;;4.75;54.02
72548;BME280;60570;50.848;6.776;2023-03-01T03:31:20;101701.38;;;4.74;53.99
72548;BME280;60570;50.848;6.776;2023-03-01T03:32:20;101699.41;;;4.64;54.07
72548;BME280;60570;50.848;6.776;2023-03-01T03:33:21;101698.03;;;4.67;53.93
72548;BME280;60570;50.848;6.776;2023-03-01T03:34:21;101699.97;;;4.71;53.88
72548;BME280;60570;50.848;6.776;2023-03-01T03:35:28;101698.03;;;4.67;54.21
72548;BME280;60570;50.848;6.776;2023-03-01T03:36:30;101698.34;;;4.70;53.89
72548;BME280;60570;50.848;6.776;2023-03-01T03:37:30;101698.56;;;4.64;54.35
72548;BME280;60570;50.848;6.776;2023-03-01T03:38:49;101700.47;;;4.63;54.29
72548;BME280;60570;50.848;6.776;2023-03-01T03:39:50;101693.06;;;4.69;53.86
72548;BME280;60570;50.848;6.776;2023-03-01T03:41:03;101698.84;;;4.62;54.13
72548;BME280;60570;50.848;6.776;2023-03-01T03:42:04;101690.59;;;4.62;54.50
72548;BME280;60570;50.848;6.776;2023-03-01T03:43:07;101694.19;;;4.68;54.15
72548;BME280;60570;50.848;6.776;2023-03-01T03:44:08;101699.13;;;4.66;54.15
72548;BME280;60570;50.848;6.776;2023-03-01T03:45:08;101700.53;;;4.68;54.18
72548;BME280;60570;50.848;6.776;2023-03-01T03:46:10;101696.94;;;4.68;54.29
72548;BME280;60570;50.848;6.776;2023-03-01T03:47:11;101697.44;;;4.65;54.04
72548;BME280;60570;50.848;6.776;2023-03-01T03:48:11;101706.53;;;4.65;53.92
72548;BME280;60570;50.848;6.776;2023-03-01T03:49:12;101702.72;;;4.66;53.81
72548;BME280;60570;50.848;6.776;2023-03-01T03:50:15;101697.44;;;4.65;53.73
72548;BME280;60570;50.848;6.776;2023-03-01T03:51:17;101693.06;;;4.64;54.18
72548;BME280;60570;50.848;6.776;2023-03-01T03:52:17;101692.22;;;4.58;54.06
72548;BME280;60570;50.848;6.776;2023-03-01T03:53:18;101691.09;;;4.54;54.03
72548;BME280;60570;50.848;6.776;2023-03-01T03:54:19;101686.94;;;4.51;54.69
72548;BME280;60570;50.848;6.776;2023-03-01T03:55:20;101689.16;;;4.54;54.58
72548;BME280;60570;50.848;6.776;2023-03-01T03:56:20;101692.22;;;4.58;54.33
72548;BME280;60570;50.848;6.776;2023-03-01T03:57:21;101693.56;;;4.55;54.12
72548;BME280;60570;50.848;6.776;2023-03-01T03:58:23;101689.16;;;4.54;53.78
72548;BME280;60570;50.848;6.776;2023-03-01T03:59:23;101696.31;;;4.61;53.92
72548;BME280;60570;50.848;6.776;2023-03-01T04:00:24;101694.66;;;4.54;53.96
72548;BME280;60570;50.848;6.776;2023-03-01T04:01:24;101695.75;;;4.53;54.11
72548;BME280;60570;50.848;6.776;2023-03-01T04:02:25;101692.22;;;4.58;53.72
72548;BME280;60570;50.848;6.776;2023-03-01T04:03:28;101691.94;;;4.60;54.03
72548;BME280;60570;50.848;6.776;2023-03-01T04:04:29;101689.47;;;4.63;53.95
72548;BME280;60570;50.848;6.776;2023-03-01T04:05:29;101688.06;;;4.55;54.24
72548;BME280;60570;50.848;6.776;2023-03-01T04:06:30;101682.84;;;4.59;53.95
72548;BME280;60570;50.848;6.776;2023-03-01T04:07:31;101678.75;;;4.62;53.85
72548;BME280;60570;50.848;6.776;2023-03-01T04:08:31;101680.94;;;4.60;53.91
72548;BME280;60570;50.848;6.776;2023-03-01T04:09:32;101673.00;;;4.68;53.80
72548;BME280;60570;50.848;6.776;2023-03-01T04:10:35;101670.22;;;4.63;53.87
72548;BME280;60570;50.848;6.776;2023-03-01T04:11:37;101672.97;;;4.63;53.84
72548;BME280;60570;50.848;6.776;2023-03-01T04:12:38;101673.50;;;4.60;54.11
72548;BME280;60570;50.848;6.776;2023-03-01T04:13:39;101673.75;;;4.53;53.89
72548;BME280;60570;50.848;6.776;2023-03-01T04:14:40;101673.75;;;4.58;53.95
72548;BME280;60570;50.848;6.776;2023-03-01T04:15:40;101670.19;;;4.58;53.67
72548;BME280;60570;50.848;6.776;2023-03-01T04:16:43;101672.94;;;4.58;53.57
72548;BME280;60570;50.848;6.776;2023-03-01T04:17:45;101670.22;;;4.63;53.67
72548;BME280;60570;50.848;6.776;2023-03-01T04:18:47;101669.91;;;4.54;53.96
72548;BME280;60570;50.848;6.776;2023-03-01T04:19:47;101665.50;;;4.53;54.10
72548;BME280;60570;50.848;6.776;2023-03-01T04:20:48;101662.75;;;4.53;53.90
72548;BME280;60570;50.848;6.776;2023-03-01T04:21:49;101666.81;;;4.46;54.07
72548;BME280;60570;50.848;6.776;2023-03-01T04:22:51;101670.13;;;4.48;54.52
72548;BME280;60570;50.848;6.776;2023-03-01T04:23:52;101671.00;;;4.53;53.90
72548;BME280;60570;50.848;6.776;2023-03-01T04:24:52;101660.22;;;4.47;54.07
72548;BME280;60570;50.848;6.776;2023-03-01T04:25:55;101665.16;;;4.45;53.95
72548;BME280;60570;50.848;6.776;2023-03-01T04:26:55;101663.28;;;4.50;53.67
72548;BME280;60570;50.848;6.776;2023-03-01T04:27:56;101654.47;;;4.48;54.09
72548;BME280;60570;50.848;6.776;2023-03-01T04:28:56;101666.00;;;4.45;53.93
72548;BME280;60570;50.848;6.776;2023-03-01T04:29:57;101666.03;;;4.50;53.71
72548;BME280;60570;50.848;6.776;2023-03-01T04:30:58;101667.91;;;4.45;53.97
72548;BME280;60570;50.848;6.776;2023-03-01T04:32:02;101672.09;;;4.52;53.90
72548;BME280;60570;50.848;6.776;2023-03-01T04:33:04;101667.94;;;4.50;53.88
72548;BME280;60570;50.848;6.776;2023-03-01T04:34:05;101665.75;;;4.52;53.78
72548;BME280;60570;50.848;6.776;2023-03-01T04:35:06;101673.19;;;4.51;53.61
72548;BME280;60570;50.848;6.776;2023-03-01T04:36:07;101676.47;;;4.48;54.22
72548;BME280;60570;50.848;6.776;2023-03-01T04:37:08;101670.13;;;4.43;54.39
72548;BME280;60570;50.848;6.776;2023-03-01T04:38:09;101673.94;;;4.42;53.92
72548;BME280;60570;50.848;6.776;2023-03-01T04:39:09;101666.25;;;4.44;54.24
72548;BME280;60570;50.848;6.776;2023-03-01T04:40:15;101670.34;;;4.36;54.00
72548;BME280;60570;50.848;6.776;2023-03-01T04:41:18;101664.56;;;4.38;53.79
72548;BME280;60570;50.848;6.776;2023-03-01T04:42:19;101665.69;;;4.42;53.96
72548;BME280;60570;50.848;6.776;2023-03-01T04:43:19;101664.56;;;4.38;54.47
72548;BME280;60570;50.848;6.776;2023-03-01T04:44:20;101667.09;;;4.44;54.00
72548;BME280;60570;50.848;6.776;2023-03-01T04:45:20;101662.09;;;4.36;53.96
72548;BME280;60570;50.848;6.776;2023-03-01T04:46:21;101668.44;;;4.42;53.96
72548;BME280;60570;50.848;6.776;2023-03-01T04:47:21;101665.69;;;4.42;54.01
72548;BME280;60570;50.848;6.776;2023-03-01T04:48:22;101679.19;;;4.43;53.87
72548;BME280;60570;50.848;6.776;2023-03-01T04:49:22;101674.78;;;4.42;54.04
72548;BME280;60570;50.848;6.776;2023-03-01T04:50:23;101665.13;;;4.40;53.70
72548;BME280;60570;50.848;6.776;2023-03-01T04:51:25;101669.25;;;4.37;54.24
72548;BME280;60570;50.848;6.776;2023-03-01T04:52:26;101668.13;;;4.33;54.14
72548;BME280;60570;50.848;6.776;2023-03-01T04:53:27;101664.31;;;4.39;53.69
72548;BME280;60570;50.848;6.776;2023-03-01T04:54:29;101662.94;;;4.37;54.20
72548;BME280;60570;50.848;6.776;2023-03-01T04:55:29;101657.69;;;4.35;54.05
72548;BME280;60570;50.848;6.776;2023-03-01T04:56:30;101655.53;;;4.42;53.99
72548;BME280;60570;50.848;6.776;2023-03-01T04:57:31;101654.69;;;4.42;53.79
72548;BME280;60570;50.848;6.776;2023-03-01T04:58:32;101644.53;;;4.42;53.81
72548;BME280;60570;50.848;6.776;2023-03-01T04:59:32;101648.38;;;4.41;54.12
72548;BME280;60570;50.848;6.776;2023-03-01T05:00:33;101648.34;;;4.36;53.76
72548;BME280;60570;50.848;6.776;2023-03-01T05:01:35;101647.25;;;4.37;54.11
72548;BME280;60570;50.848;6.776;2023-03-01T05:02:35;101642.00;;;4.36;53.94
72548;BME280;60570;50.848;6.776;2023-03-01T05:03:36;101648.06;;;4.38;54.47
72548;BME280;60570;50.848;6.776;2023-03-01T05:04:36;101651.88;;;4.32;54.40
72548;BME280;60570;50.848;6.776;2023-03-01T05:05:38;101652.22;;;4.40;54.19
72548;BME280;60570;50.848;6.776;2023-03-01T05:06:38;101650.88;;;4.43;53.75
72548;BME280;60570;50.848;6.776;2023-03-01T05:07:39;101652.78;;;4.42;53.88
72548;BME280;60570;50.848;6.776;2023-03-01T05:08:41;101653.06;;;4.46;53.69
72548;BME280;60570;50.848;6.776;2023-03-01T05:09:41;101651.09;;;4.41;54.01
72548;BME280;60570;50.848;6.776;2023-03-01T05:10:42;101652.50;;;4.39;53.66
72548;BME280;60570;50.848;6.776;2023-03-01T05:11:42;101652.22;;;4.40;54.10
72548;BME280;60570;50.848;6.776;2023-03-01T05:12:43;101647.00;;;4.39;54.09
72548;BME280;60570;50.848;6.776;2023-03-01T05:13:43;101648.88;;;4.33;53.86
72548;BME280;60570;50.848;6.776;2023-03-01T05:14:44;101653.56;;;4.33;54.39
72548;BME280;60570;50.848;6.776;2023-03-01T05:15:44;101656.06;;;4.39;53.99
72548;BME280;60570;50.848;6.776;2023-03-01T05:16:45;101655.75;;;4.36;53.98
72548;BME280;60570;50.848;6.776;2023-03-01T05:17:45;101657.66;;;4.30;54.61
72548;BME280;60570;50.848;6.776;2023-03-01T05:18:46;101652.44;;;4.29;54.10
72548;BME280;60570;50.848;6.776;2023-03-01T05:19:46;101657.38;;;4.27;53.88
72548;BME280;60570;50.848;6.776;2023-03-01T05:20:47;101657.66;;;4.30;54.07
72548;BME280;60570;50.848;6.776;2023-03-01T05:21:48;101658.44;;;4.26;54.26
72548;BME280;60570;50.848;6.776;2023-03-01T05:23:06;101666.19;;;4.29;54.20
72548;BME280;60570;50.848;6.776;2023-03-01T05:24:07;101663.94;;;4.26;53.96
72548;BME280;60570;50.848;6.776;2023-03-01T05:25:11;101665.06;;;4.25;54.03
72548;BME280;60570;50.848;6.776;2023-03-01T05:26:15;101663.91;;;4.21;54.36
72548;BME280;60570;50.848;6.776;2023-03-01T05:27:15;101658.44;;;4.26;54.57
72548;BME280;60570;50.848;6.776;2023-03-01T05:28:16;101664.75;;;4.21;54.34
72548;BME280;60570;50.848;6.776;2023-03-01T05:29:16;101652.13;;;4.25;54.01
72548;BME280;60570;50.848;6.776;2023-03-01T05:30:18;101659.56;;;4.25;54.27
72548;BME280;60570;50.848;6.776;2023-03-01T05:31:18;101657.38;;;4.27;54.12
72548;BME280;60570;50.848;6.776;2023-03-01T05:32:18;101654.88;;;4.25;54.25
72548;BME280;60570;50.848;6.776;2023-03-01T05:33:19;101655.97;;;4.24;53.90
72548;BME280;60570;50.848;6.776;2023-03-01T05:34:26;101654.06;;;4.25;54.17
72548;BME280;60570;50.848;6.776;2023-03-01T05:35:27;101652.69;;;4.27;53.92
72548;BME280;60570;50.848;6.776;2023-03-01T05:36:29;101658.44;;;4.26;54.01
72548;BME280;60570;50.848;6.776;2023-03-01T05:37:30;101657.88;;;4.24;54.18
72548;BME280;60570;50.848;6.776;2023-03-01T05:38:30;101652.94;;;4.21;54.13